Time;durP1;ratioP1;P1;durP2;ratioP2;P2;SDS_P1;SDS_P2;PMS_P1;PMS_P2;Temp;Humidity;BMP_temperature;BMP_pressure;BME280_temperature;BME280_humidity;BME280_pressure;Samples;Min_cycle;Max_cycle;Signal;HPM_P1;HPM_P2
2022/10/02 00:01:05;;;;;;;4.00;1.05;;;;;;;;;;5033609;28;20592;-71
2022/10/02 00:03:34;;;;;;;4.72;1.70;;;;;;;;;;5034529;28;20273;-71
2022/10/02 00:06:10;;;;;;;3.40;1.52;;;;;;;;;;5031813;28;20269;-71
2022/10/02 00:08:37;;;;;;;7.15;1.38;;;;;;;;;;5012315;28;20174;-71
2022/10/02 00:11:05;;;;;;;4.55;1.23;;;;;;;;;;5029806;28;20257;-71
2022/10/02 00:13:43;;;;;;;5.38;1.15;;;;;;;;;;5007200;28;20199;-71
2022/10/02 00:16:30;;;;;;;3.55;1.20;;;;;;;;;;5031999;28;20594;-71
2022/10/02 00:18:56;;;;;;;4.00;1.23;;;;;;;;;;5033461;28;20178;-71
2022/10/02 00:21:39;;;;;;;4.40;1.20;;;;;;;;;;5022787;28;20668;-71
2022/10/02 00:24:06;;;;;;;5.13;1.27;;;;;;;;;;5026682;28;20210;-71
2022/10/02 00:26:32;;;;;;;6.03;1.70;;;;;;;;;;5025231;28;20206;-71
2022/10/02 00:29:16;;;;;;;5.73;1.33;;;;;;;;;;5025240;28;20175;-71
2022/10/02 00:31:50;;;;;;;13.10;2.63;;;;;;;;;;5028572;28;20410;-71
2022/10/02 00:34:21;;;;;;;12.60;2.15;;;;;;;;;;5030813;28;20214;-71
2022/10/02 00:36:53;;;;;;;7.10;2.20;;;;;;;;;;5032087;28;20637;-72
2022/10/02 00:39:29;;;;;;;8.85;3.03;;;;;;;;;;5025279;28;20246;-71
2022/10/02 00:41:54;;;;;;;12.63;2.78;;;;;;;;;;5026248;28;20182;-71
2022/10/02 00:44:25;;;;;;;17.42;3.10;;;;;;;;;;5026380;28;20183;-72
2022/10/02 00:46:58;;;;;;;15.80;4.43;;;;;;;;;;5021636;28;20429;-72
2022/10/02 00:49:34;;;;;;;13.48;4.00;;;;;;;;;;5023175;28;20202;-71
2022/10/02 00:52:05;;;;;;;8.27;3.00;;;;;;;;;;5028286;28;20178;-72
2022/10/02 00:54:49;;;;;;;13.30;3.40;;;;;;;;;;5028962;28;20190;-71
2022/10/02 00:57:17;;;;;;;15.95;3.80;;;;;;;;;;5026598;28;20214;-71
2022/10/02 00:59:56;;;;;;;13.57;3.17;;;;;;;;;;5025427;28;20170;-71
2022/10/02 01:02:30;;;;;;;10.05;3.10;;;;;;;;;;5030189;28;20194;-71
2022/10/02 01:04:56;;;;;;;15.35;4.07;;;;;;;;;;5024931;28;20190;-72
2022/10/02 01:07:21;;;;;;;14.70;3.13;;;;;;;;;;5032180;28;20232;-71
2022/10/02 01:09:47;;;;;;;14.52;3.65;;;;;;;;;;5027719;28;20178;-72
2022/10/02 01:12:13;;;;;;;13.05;2.90;;;;;;;;;;5025368;28;20333;-71
2022/10/02 01:14:39;;;;;;;13.43;3.30;;;;;;;;;;5032785;28;20170;-71
2022/10/02 01:17:06;;;;;;;9.05;3.83;;;;;;;;;;5032311;28;20190;-71
2022/10/02 01:19:37;;;;;;;13.32;4.32;;;;;;;;;;5032243;28;20183;-72
2022/10/02 01:22:07;;;;;;;22.70;3.50;;;;;;;;;;5022072;28;20179;-72
2022/10/02 01:24:48;;;;;;;12.93;3.33;;;;;;;;;;5028127;28;20193;-71
2022/10/02 01:27:13;;;;;;;13.13;3.83;;;;;;;;;;5009771;28;21233;-71
2022/10/02 01:29:38;;;;;;;15.95;3.75;;;;;;;;;;5030967;28;20178;-71
2022/10/02 01:32:03;;;;;;;20.45;3.63;;;;;;;;;;5027300;28;20194;-71
2022/10/02 01:34:29;;;;;;;16.70;3.70;;;;;;;;;;5025036;28;20189;-71
2022/10/02 01:36:54;;;;;;;19.00;4.22;;;;;;;;;;5025557;28;21539;-72
2022/10/02 01:39:20;;;;;;;14.63;3.15;;;;;;;;;;5022348;28;20178;-72
2022/10/02 01:41:46;;;;;;;14.43;3.40;;;;;;;;;;5027966;28;20173;-72
2022/10/02 01:44:12;;;;;;;15.73;3.08;;;;;;;;;;5029770;28;20178;-72
2022/10/02 01:46:47;;;;;;;14.32;3.75;;;;;;;;;;5025685;28;20183;-72
2022/10/02 01:49:38;;;;;;;21.75;5.13;;;;;;;;;;5024080;28;20192;-72
2022/10/02 01:52:19;;;;;;;15.13;3.83;;;;;;;;;;5025173;28;20675;-71
2022/10/02 01:55:03;;;;;;;13.63;2.78;;;;;;;;;;5005851;28;20206;-71
2022/10/02 01:57:47;;;;;;;10.25;2.33;;;;;;;;;;5019983;28;20210;-72
2022/10/02 02:00:16;;;;;;;14.65;3.10;;;;;;;;;;5017512;28;20178;-71
2022/10/02 02:02:50;;;;;;;19.30;4.07;;;;;;;;;;5030279;28;20236;-72
2022/10/02 02:05:38;;;;;;;13.57;3.72;;;;;;;;;;5022199;28;20215;-72
2022/10/02 02:08:08;;;;;;;13.70;2.67;;;;;;;;;;5004385;28;20198;-72
2022/10/02 02:10:43;;;;;;;11.20;2.28;;;;;;;;;;5023338;28;20205;-72
2022/10/02 02:13:15;;;;;;;11.10;3.03;;;;;;;;;;5026441;28;20672;-72
2022/10/02 02:15:48;;;;;;;11.65;3.10;;;;;;;;;;5016687;28;20182;-71
2022/10/02 02:18:27;;;;;;;13.77;2.65;;;;;;;;;;5025158;28;20198;-71
2022/10/02 02:20:54;;;;;;;8.40;2.63;;;;;;;;;;5022750;28;20185;-71
2022/10/02 02:23:23;;;;;;;11.60;2.80;;;;;;;;;;5023157;28;20253;-71
2022/10/02 02:25:50;;;;;;;11.07;2.20;;;;;;;;;;5026784;28;20662;-72
2022/10/02 02:28:17;;;;;;;13.98;2.30;;;;;;;;;;5030934;28;20686;-71
2022/10/02 02:30:45;;;;;;;11.43;2.55;;;;;;;;;;5020942;28;20253;-71
2022/10/02 02:33:14;;;;;;;10.73;2.42;;;;;;;;;;5024304;28;20252;-71
2022/10/02 02:35:50;;;;;;;9.98;2.42;;;;;;;;;;5025624;28;20182;-71
2022/10/02 02:38:23;;;;;;;8.15;2.08;;;;;;;;;;5028765;28;20281;-71
2022/10/02 02:40:49;;;;;;;12.23;2.72;;;;;;;;;;5022995;28;20663;-71
2022/10/02 02:43:21;;;;;;;10.68;2.58;;;;;;;;;;5028121;28;20206;-71
2022/10/02 02:45:56;;;;;;;14.05;2.95;;;;;;;;;;5024024;28;20177;-71
2022/10/02 02:48:25;;;;;;;11.75;2.72;;;;;;;;;;5031694;28;20182;-71
2022/10/02 02:50:54;;;;;;;13.75;2.15;;;;;;;;;;5016513;28;20661;-71
2022/10/02 02:53:22;;;;;;;6.68;2.30;;;;;;;;;;5018460;28;20700;-71
2022/10/02 02:55:48;;;;;;;11.30;2.30;;;;;;;;;;5020547;28;20175;-71
2022/10/02 02:58:21;;;;;;;9.10;2.57;;;;;;;;;;5021551;28;20570;-71
2022/10/02 03:00:46;;;;;;;11.20;2.60;;;;;;;;;;5021438;28;20400;-71
2022/10/02 03:03:12;;;;;;;14.40;2.78;;;;;;;;;;5026180;28;20205;-72
2022/10/02 03:05:41;;;;;;;10.93;2.33;;;;;;;;;;5024107;28;20174;-71
2022/10/02 03:08:14;;;;;;;10.20;2.22;;;;;;;;;;5005061;28;20186;-71
2022/10/02 03:10:40;;;;;;;8.43;2.30;;;;;;;;;;5018331;28;20193;-72
2022/10/02 03:13:11;;;;;;;11.20;2.88;;;;;;;;;;5027778;28;20260;-71
2022/10/02 03:15:47;;;;;;;19.80;4.53;;;;;;;;;;5020390;28;20423;-71
2022/10/02 03:18:15;;;;;;;14.38;2.55;;;;;;;;;;5024268;28;20202;-71
2022/10/02 03:20:56;;;;;;;10.40;2.42;;;;;;;;;;5021399;28;20539;-71
2022/10/02 03:23:24;;;;;;;16.00;3.40;;;;;;;;;;5023735;28;20300;-71
2022/10/02 03:25:58;;;;;;;10.48;2.20;;;;;;;;;;5016339;28;20606;-71
2022/10/02 03:28:29;;;;;;;17.25;2.88;;;;;;;;;;5026493;28;20598;-71
2022/10/02 03:30:55;;;;;;;13.65;3.10;;;;;;;;;;5022090;28;20633;-71
2022/10/02 03:33:21;;;;;;;11.05;3.20;;;;;;;;;;5024209;28;20209;-71
2022/10/02 03:35:46;;;;;;;16.30;3.30;;;;;;;;;;5023344;28;20167;-71
2022/10/02 03:38:13;;;;;;;12.05;2.95;;;;;;;;;;5031226;28;20730;-71
2022/10/02 03:40:39;;;;;;;14.70;3.72;;;;;;;;;;5018783;28;20177;-72
2022/10/02 03:43:04;;;;;;;9.25;2.47;;;;;;;;;;5018172;28;20567;-71
2022/10/02 03:45:29;;;;;;;12.50;2.55;;;;;;;;;;5023088;28;20179;-71
2022/10/02 03:47:55;;;;;;;11.63;2.65;;;;;;;;;;5025908;28;20180;-72
2022/10/02 03:50:20;;;;;;;12.38;3.22;;;;;;;;;;5021906;28;20178;-72
2022/10/02 03:52:46;;;;;;;11.98;2.35;;;;;;;;;;5030699;28;20662;-71
2022/10/02 03:55:11;;;;;;;12.68;3.67;;;;;;;;;;5011341;28;20178;-71
2022/10/02 03:57:36;;;;;;;13.57;2.35;;;;;;;;;;5028763;28;20202;-71
2022/10/02 04:00:06;;;;;;;13.82;2.67;;;;;;;;;;5016783;28;20273;-71
2022/10/02 04:02:31;;;;;;;11.40;2.85;;;;;;;;;;5026849;28;20734;-71
2022/10/02 04:05:00;;;;;;;12.67;3.17;;;;;;;;;;5024037;28;20182;-71
2022/10/02 04:07:30;;;;;;;14.52;4.22;;;;;;;;;;5025712;28;20404;-71
2022/10/02 04:09:58;;;;;;;16.70;2.92;;;;;;;;;;5029416;28;20178;-71
2022/10/02 04:12:30;;;;;;;21.63;4.00;;;;;;;;;;5025081;28;20618;-72
2022/10/02 04:15:05;;;;;;;9.18;2.25;;;;;;;;;;5029906;28;20170;-72
2022/10/02 04:17:43;;;;;;;12.15;2.40;;;;;;;;;;5025987;28;20201;-72
2022/10/02 04:20:15;;;;;;;13.35;3.00;;;;;;;;;;5024787;28;20261;-72
2022/10/02 04:22:45;;;;;;;11.75;1.98;;;;;;;;;;5021218;28;20240;-71
2022/10/02 04:25:17;;;;;;;11.10;2.55;;;;;;;;;;5025827;28;20191;-71
2022/10/02 04:27:42;;;;;;;12.52;2.22;;;;;;;;;;5024544;28;20193;-71
2022/10/02 04:30:12;;;;;;;15.40;2.72;;;;;;;;;;5023925;28;20175;-72
2022/10/02 04:32:37;;;;;;;9.18;2.63;;;;;;;;;;5028564;28;20260;-71
2022/10/02 04:35:13;;;;;;;11.45;2.75;;;;;;;;;;5016032;28;20183;-72
2022/10/02 04:37:44;;;;;;;10.48;2.20;;;;;;;;;;5018688;28;20679;-72
2022/10/02 04:40:09;;;;;;;6.22;2.38;;;;;;;;;;5029093;28;20183;-71
2022/10/02 04:42:34;;;;;;;16.17;2.60;;;;;;;;;;5028258;28;20195;-72
2022/10/02 04:45:08;;;;;;;8.18;2.58;;;;;;;;;;5024364;28;20409;-72
2022/10/02 04:47:54;;;;;;;7.95;2.47;;;;;;;;;;5031867;28;20244;-71
2022/10/02 04:50:24;;;;;;;9.23;2.40;;;;;;;;;;4996868;28;20691;-71
2022/10/02 04:53:02;;;;;;;10.38;2.95;;;;;;;;;;5021986;28;20213;-73
2022/10/02 04:55:39;;;;;;;11.27;2.75;;;;;;;;;;5028082;28;20585;-70
2022/10/02 04:58:15;;;;;;;8.65;2.83;;;;;;;;;;5023045;28;20292;-73
2022/10/02 05:00:51;;;;;;;11.15;2.83;;;;;;;;;;5027902;28;20596;-73
2022/10/02 05:03:31;;;;;;;17.67;3.20;;;;;;;;;;5033753;28;20218;-72
2022/10/02 05:06:05;;;;;;;14.30;3.38;;;;;;;;;;5022892;28;20236;-73
2022/10/02 05:08:45;;;;;;;10.65;2.90;;;;;;;;;;5028580;28;20190;-73
2022/10/02 05:11:17;;;;;;;9.93;3.40;;;;;;;;;;5020423;28;20186;-71
2022/10/02 05:14:02;;;;;;;12.65;2.38;;;;;;;;;;5022374;28;20206;-71
2022/10/02 05:16:27;;;;;;;21.05;4.63;;;;;;;;;;5027862;28;20186;-72
2022/10/02 05:19:07;;;;;;;18.33;3.45;;;;;;;;;;5032295;28;20175;-71
2022/10/02 05:21:32;;;;;;;17.90;3.20;;;;;;;;;;5022816;28;20412;-72
2022/10/02 05:24:18;;;;;;;18.67;2.95;;;;;;;;;;5017673;28;20253;-71
2022/10/02 05:26:59;;;;;;;18.17;3.45;;;;;;;;;;5024970;28;20808;-72
2022/10/02 05:29:34;;;;;;;12.38;3.70;;;;;;;;;;5016421;28;20186;-72
2022/10/02 05:31:59;;;;;;;17.58;3.05;;;;;;;;;;5025023;28;20637;-72
2022/10/02 05:34:43;;;;;;;18.73;3.47;;;;;;;;;;5031878;28;20228;-72
2022/10/02 05:37:27;;;;;;;14.23;3.17;;;;;;;;;;5029400;28;21069;-72
2022/10/02 05:40:11;;;;;;;17.42;2.90;;;;;;;;;;5025885;28;20186;-72
2022/10/02 05:42:48;;;;;;;12.40;3.70;;;;;;;;;;5029419;28;20206;-72
2022/10/02 05:45:25;;;;;;;12.85;2.83;;;;;;;;;;5006601;28;20178;-72
2022/10/02 05:47:52;;;;;;;17.88;4.28;;;;;;;;;;5024568;28;20538;-72
2022/10/02 05:50:18;;;;;;;12.75;2.95;;;;;;;;;;5022763;28;20190;-72
2022/10/02 05:52:54;;;;;;;15.35;4.50;;;;;;;;;;5026978;28;20219;-72
2022/10/02 05:55:31;;;;;;;11.27;2.85;;;;;;;;;;5024364;28;20182;-72
2022/10/02 05:58:00;;;;;;;13.55;3.40;;;;;;;;;;5020781;28;20265;-72
2022/10/02 06:00:28;;;;;;;11.43;2.95;;;;;;;;;;5023557;28;20795;-72
2022/10/02 06:03:08;;;;;;;19.90;3.60;;;;;;;;;;5026017;28;20209;-72
2022/10/02 06:05:33;;;;;;;15.10;3.38;;;;;;;;;;5025930;28;20608;-72
2022/10/02 06:08:01;;;;;;;9.80;2.83;;;;;;;;;;5027924;28;20209;-72
2022/10/02 06:10:29;;;;;;;11.77;3.10;;;;;;;;;;5026137;28;20446;-71
2022/10/02 06:12:57;;;;;;;14.38;3.10;;;;;;;;;;5011853;28;20194;-72
2022/10/02 06:15:30;;;;;;;13.85;2.88;;;;;;;;;;5027502;28;20196;-71
2022/10/02 06:18:01;;;;;;;8.00;2.55;;;;;;;;;;5030948;28;20264;-72
2022/10/02 06:20:31;;;;;;;5.10;2.30;;;;;;;;;;5023478;28;20232;-71
2022/10/02 06:23:13;;;;;;;13.57;2.65;;;;;;;;;;5022517;28;20245;-72
2022/10/02 06:25:43;;;;;;;19.95;3.55;;;;;;;;;;5025273;28;20647;-72
2022/10/02 06:28:21;;;;;;;9.38;2.50;;;;;;;;;;5029434;28;20178;-72
2022/10/02 06:30:51;;;;;;;10.75;2.40;;;;;;;;;;5011274;28;20555;-72
2022/10/02 06:33:24;;;;;;;9.38;2.33;;;;;;;;;;5026083;28;20292;-72
2022/10/02 06:36:06;;;;;;;15.75;3.05;;;;;;;;;;5026634;28;20542;-71
2022/10/02 06:38:35;;;;;;;8.20;2.20;;;;;;;;;;5021822;28;20710;-72
2022/10/02 06:41:12;;;;;;;14.80;2.88;;;;;;;;;;5018871;28;20178;-71
2022/10/02 06:43:43;;;;;;;10.00;2.03;;;;;;;;;;5025350;28;20205;-72
2022/10/02 06:46:11;;;;;;;12.48;2.83;;;;;;;;;;5026183;28;20178;-72
2022/10/02 06:48:47;;;;;;;8.48;2.45;;;;;;;;;;5024347;28;20187;-72
2022/10/02 06:51:22;;;;;;;13.65;3.13;;;;;;;;;;5022516;28;20182;-72
2022/10/02 06:53:53;;;;;;;9.50;2.50;;;;;;;;;;5019000;28;20410;-71
2022/10/02 06:56:18;;;;;;;16.52;2.30;;;;;;;;;;5014234;28;20187;-72
2022/10/02 06:58:49;;;;;;;9.68;2.67;;;;;;;;;;5023885;28;20177;-72
2022/10/02 07:01:26;;;;;;;9.05;2.88;;;;;;;;;;5019020;28;20659;-72
2022/10/02 07:04:03;;;;;;;9.65;2.28;;;;;;;;;;5022570;28;20546;-72
2022/10/02 07:06:45;;;;;;;8.85;2.65;;;;;;;;;;5027861;28;20178;-71
2022/10/02 07:09:29;;;;;;;9.68;2.85;;;;;;;;;;5026597;28;20221;-71
2022/10/02 07:12:23;;;;;;;8.38;2.70;;;;;;;;;;5026501;28;20174;-71
2022/10/02 07:15:08;;;;;;;9.40;2.20;;;;;;;;;;4970816;28;20188;-71
2022/10/02 07:17:40;;;;;;;8.68;2.80;;;;;;;;;;5011063;28;20240;-72
2022/10/02 07:20:17;;;;;;;10.07;2.75;;;;;;;;;;5024729;28;20210;-72
2022/10/02 07:22:57;;;;;;;10.63;2.88;;;;;;;;;;5020895;28;20217;-71
2022/10/02 07:25:38;;;;;;;8.27;2.22;;;;;;;;;;5024656;28;20182;-71
2022/10/02 07:28:09;;;;;;;13.10;2.40;;;;;;;;;;5023718;28;20207;-71
2022/10/02 07:30:40;;;;;;;7.80;1.88;;;;;;;;;;5017827;28;20555;-72
2022/10/02 07:33:10;;;;;;;10.40;2.08;;;;;;;;;;5018065;28;20206;-71
2022/10/02 07:35:35;;;;;;;9.80;2.42;;;;;;;;;;5023728;28;20582;-71
2022/10/02 07:38:03;;;;;;;11.53;1.80;;;;;;;;;;5007463;28;20199;-71
2022/10/02 07:40:33;;;;;;;7.93;2.28;;;;;;;;;;5022272;28;20431;-71
2022/10/02 07:43:07;;;;;;;8.32;2.10;;;;;;;;;;5004047;28;20205;-71
2022/10/02 07:45:37;;;;;;;7.10;1.90;;;;;;;;;;5020164;28;20201;-72
2022/10/02 07:48:11;;;;;;;7.82;2.28;;;;;;;;;;5024268;28;20194;-72
2022/10/02 07:50:36;;;;;;;12.05;2.50;;;;;;;;;;5024526;28;20174;-72
2022/10/02 07:53:01;;;;;;;7.90;1.92;;;;;;;;;;5015463;28;20222;-72
2022/10/02 07:55:27;;;;;;;8.17;2.20;;;;;;;;;;5021462;28;20186;-71
2022/10/02 07:57:52;;;;;;;6.95;2.00;;;;;;;;;;5020714;28;20482;-72
2022/10/02 08:00:18;;;;;;;8.95;2.53;;;;;;;;;;5020361;28;20658;-72
2022/10/02 08:02:49;;;;;;;8.23;1.88;;;;;;;;;;5022085;28;20202;-72
2022/10/02 08:05:26;;;;;;;7.07;1.80;;;;;;;;;;5028208;28;20261;-72
2022/10/02 08:07:55;;;;;;;7.20;2.17;;;;;;;;;;5025430;28;20252;-72
2022/10/02 08:10:24;;;;;;;4.22;2.17;;;;;;;;;;5029111;28;20179;-72
2022/10/02 08:12:57;;;;;;;10.63;2.42;;;;;;;;;;5025563;28;20217;-72
2022/10/02 08:15:23;;;;;;;6.75;2.13;;;;;;;;;;5026797;28;20265;-72
2022/10/02 08:17:54;;;;;;;5.75;1.75;;;;;;;;;;5027484;28;20744;-72
2022/10/02 08:20:22;;;;;;;8.68;1.95;;;;;;;;;;5034149;28;20177;-72
2022/10/02 08:22:51;;;;;;;8.68;2.00;;;;;;;;;;5029620;28;20710;-72
2022/10/02 08:25:19;;;;;;;8.07;1.83;;;;;;;;;;5012880;28;20202;-72
2022/10/02 08:27:54;;;;;;;6.10;1.67;;;;;;;;;;5021270;28;20665;-72
2022/10/02 08:30:20;;;;;;;7.32;2.28;;;;;;;;;;5026296;28;20191;-72
2022/10/02 08:32:46;;;;;;;7.65;1.92;;;;;;;;;;5016358;28;20268;-71
2022/10/02 08:35:16;;;;;;;9.98;2.13;;;;;;;;;;5024274;28;20210;-71
2022/10/02 08:37:41;;;;;;;11.02;1.98;;;;;;;;;;5010683;28;20617;-71
2022/10/02 08:40:28;;;;;;;8.70;2.03;;;;;;;;;;5006470;28;20189;-72
2022/10/02 08:42:55;;;;;;;6.78;2.20;;;;;;;;;;5021978;28;20851;-71
2022/10/02 08:45:23;;;;;;;8.25;1.80;;;;;;;;;;5028283;28;20178;-71
2022/10/02 08:48:07;;;;;;;11.05;2.60;;;;;;;;;;5022680;28;20735;-71
2022/10/02 08:50:32;;;;;;;8.43;1.50;;;;;;;;;;5026157;28;20182;-71
2022/10/02 08:53:09;;;;;;;6.47;2.10;;;;;;;;;;5027290;28;20196;-71
2022/10/02 08:55:37;;;;;;;8.05;1.60;;;;;;;;;;5021316;28;20405;-71
2022/10/02 08:58:02;;;;;;;6.03;1.65;;;;;;;;;;5006869;28;20703;-71
2022/10/02 09:00:43;;;;;;;7.10;2.60;;;;;;;;;;5030608;28;20186;-71
2022/10/02 09:03:27;;;;;;;7.80;2.42;;;;;;;;;;5026934;28;20545;-70
2022/10/02 09:05:55;;;;;;;12.63;2.78;;;;;;;;;;5024740;28;20178;-71
2022/10/02 09:08:20;;;;;;;5.78;2.22;;;;;;;;;;5024308;28;20207;-71
2022/10/02 09:11:01;;;;;;;10.80;2.97;;;;;;;;;;5027885;28;20230;-70
2022/10/02 09:13:45;;;;;;;8.40;2.15;;;;;;;;;;5029857;28;20534;-71
2022/10/02 09:16:14;;;;;;;7.93;1.85;;;;;;;;;;5031174;28;20174;-71
2022/10/02 09:18:58;;;;;;;10.00;2.38;;;;;;;;;;5028060;28;20209;-71
2022/10/02 09:21:33;;;;;;;6.95;2.28;;;;;;;;;;5026004;28;20197;-70
2022/10/02 09:24:21;;;;;;;9.20;2.50;;;;;;;;;;5018982;28;20252;-70
2022/10/02 09:26:46;;;;;;;6.88;1.52;;;;;;;;;;5017847;28;20265;-70
2022/10/02 09:29:14;;;;;;;5.32;1.50;;;;;;;;;;5021064;28;20594;-71
2022/10/02 09:31:48;;;;;;;5.38;2.22;;;;;;;;;;5027575;28;20175;-71
2022/10/02 09:34:20;;;;;;;10.13;1.75;;;;;;;;;;5010883;28;20194;-71
2022/10/02 09:37:07;;;;;;;6.43;1.80;;;;;;;;;;5021224;28;20783;-71
2022/10/02 09:39:50;;;;;;;10.00;2.00;;;;;;;;;;5011802;28;20186;-71
2022/10/02 09:42:24;;;;;;;11.82;1.98;;;;;;;;;;5000885;28;20793;-70
2022/10/02 09:44:55;;;;;;;4.65;1.98;;;;;;;;;;5025609;28;20537;-73
2022/10/02 09:47:46;;;;;;;8.88;1.75;;;;;;;;;;5009948;28;20450;-71
2022/10/02 09:50:32;;;;;;;8.98;1.80;;;;;;;;;;5003186;28;20190;-71
2022/10/02 09:53:22;;;;;;;8.00;1.73;;;;;;;;;;5007910;28;20694;-73
2022/10/02 09:56:03;;;;;;;8.75;2.30;;;;;;;;;;5014169;28;20197;-73
2022/10/02 09:58:44;;;;;;;11.50;2.08;;;;;;;;;;5026189;28;20631;-72
2022/10/02 10:01:32;;;;;;;9.60;2.72;;;;;;;;;;5026518;28;20171;-73
2022/10/02 10:04:07;;;;;;;6.15;1.60;;;;;;;;;;5023245;28;20241;-71
2022/10/02 10:06:51;;;;;;;8.88;2.75;;;;;;;;;;5028009;28;20563;-71
2022/10/02 10:09:35;;;;;;;7.63;2.38;;;;;;;;;;5030155;28;20257;-71
2022/10/02 10:12:04;;;;;;;4.32;1.48;;;;;;;;;;5008038;28;20228;-71
2022/10/02 10:14:32;;;;;;;6.13;1.40;;;;;;;;;;5017844;28;20183;-71
2022/10/02 10:17:08;;;;;;;9.85;2.70;;;;;;;;;;5030397;28;20201;-71
2022/10/02 10:19:36;;;;;;;8.52;1.83;;;;;;;;;;5029789;28;20177;-71
2022/10/02 10:22:07;;;;;;;6.53;1.58;;;;;;;;;;5029846;28;20270;-71
2022/10/02 10:24:45;;;;;;;5.53;1.40;;;;;;;;;;5029103;28;20183;-71
2022/10/02 10:27:13;;;;;;;8.00;1.55;;;;;;;;;;5023248;28;20254;-72
2022/10/02 10:29:38;;;;;;;7.18;1.60;;;;;;;;;;5000721;28;20179;-72
2022/10/02 10:32:09;;;;;;;4.97;1.50;;;;;;;;;;5017910;28;20691;-71
2022/10/02 10:34:53;;;;;;;7.68;1.92;;;;;;;;;;5020041;28;20205;-71
2022/10/02 10:40:20;;;;;;;7.78;1.90;;;;;;;;;;5024450;28;20189;-72
2022/10/02 10:43:02;;;;;;;9.80;2.03;;;;;;;;;;5004608;28;20624;-72
2022/10/02 10:45:46;;;;;;;5.00;1.23;;;;;;;;;;5029856;28;20182;-71
2022/10/02 10:48:17;;;;;;;6.78;1.70;;;;;;;;;;5017326;28;20269;-71
2022/10/02 10:51:01;;;;;;;5.05;1.30;;;;;;;;;;5020238;28;20219;-72
2022/10/02 10:53:41;;;;;;;6.18;1.75;;;;;;;;;;5028370;28;20233;-71
2022/10/02 10:56:20;;;;;;;5.65;1.45;;;;;;;;;;5005868;28;20194;-70
2022/10/02 10:59:05;;;;;;;4.90;1.60;;;;;;;;;;5023179;28;20663;-71
2022/10/02 11:01:36;;;;;;;6.82;1.55;;;;;;;;;;5025067;28;20193;-70
2022/10/02 11:04:20;;;;;;;6.57;1.58;;;;;;;;;;5019685;28;20698;-70
2022/10/02 11:07:06;;;;;;;9.75;2.53;;;;;;;;;;5018355;28;20614;-71
2022/10/02 11:09:44;;;;;;;4.60;1.10;;;;;;;;;;5020496;28;20645;-71
2022/10/02 11:12:20;;;;;;;8.35;2.00;;;;;;;;;;5024282;28;20248;-70
2022/10/02 11:14:45;;;;;;;4.97;1.15;;;;;;;;;;5026224;28;20549;-70
2022/10/02 11:17:34;;;;;;;3.50;1.20;;;;;;;;;;5022920;28;20197;-71
2022/10/02 11:20:02;;;;;;;6.70;2.05;;;;;;;;;;5005275;28;20298;-70
2022/10/02 11:22:27;;;;;;;5.68;1.67;;;;;;;;;;5018497;28;20684;-71
2022/10/02 11:25:03;;;;;;;8.33;2.10;;;;;;;;;;5017477;28;20244;-71
2022/10/02 11:27:41;;;;;;;7.07;1.35;;;;;;;;;;5009377;28;20433;-70
2022/10/02 11:30:31;;;;;;;9.07;2.45;;;;;;;;;;5025122;28;20175;-69
2022/10/02 11:33:00;;;;;;;5.18;1.45;;;;;;;;;;5015371;28;20248;-71
2022/10/02 11:35:47;;;;;;;5.13;1.38;;;;;;;;;;5019379;28;20179;-70
2022/10/02 11:38:31;;;;;;;4.40;1.88;;;;;;;;;;5022331;28;20182;-71
2022/10/02 11:41:04;;;;;;;4.40;1.08;;;;;;;;;;5026419;28;20623;-69
2022/10/02 11:43:44;;;;;;;4.22;1.17;;;;;;;;;;5016697;28;20225;-70
2022/10/02 11:46:32;;;;;;;5.47;1.60;;;;;;;;;;5025246;28;20650;-70
2022/10/02 11:49:05;;;;;;;4.85;1.40;;;;;;;;;;5019863;28;20186;-71
2022/10/02 11:51:34;;;;;;;5.82;1.45;;;;;;;;;;5007223;28;20189;-70
2022/10/02 11:54:02;;;;;;;6.28;1.48;;;;;;;;;;5028151;28;20698;-70
2022/10/02 11:56:30;;;;;;;7.32;1.52;;;;;;;;;;5029997;28;20186;-71
2022/10/02 11:59:08;;;;;;;5.90;1.30;;;;;;;;;;5021152;28;20198;-71
2022/10/02 12:01:44;;;;;;;7.60;1.95;;;;;;;;;;5030000;28;20170;-71
2022/10/02 12:04:28;;;;;;;5.57;1.60;;;;;;;;;;5029284;28;20206;-71
2022/10/02 12:07:03;;;;;;;6.20;1.67;;;;;;;;;;5018907;28;20174;-71
2022/10/02 12:09:32;;;;;;;5.20;1.48;;;;;;;;;;5026133;28;20209;-71
2022/10/02 12:11:57;;;;;;;9.07;1.45;;;;;;;;;;5030682;28;20235;-71
2022/10/02 12:14:22;;;;;;;7.33;1.97;;;;;;;;;;5029350;28;20282;-71
2022/10/02 12:17:04;;;;;;;9.23;2.17;;;;;;;;;;5026595;28;20830;-71
2022/10/02 12:28:22;;;;;;;10.95;2.72;;;;;;;;;;5030940;28;20212;-72
2022/10/02 12:30:51;;;;;;;6.63;1.38;;;;;;;;;;5017482;28;20230;-71
2022/10/02 12:33:16;;;;;;;6.25;1.27;;;;;;;;;;5031467;28;20210;-72
2022/10/02 12:35:41;;;;;;;7.88;1.95;;;;;;;;;;5020288;28;20261;-71
2022/10/02 12:38:25;;;;;;;7.50;1.40;;;;;;;;;;5032792;28;20679;-71
2022/10/02 12:41:07;;;;;;;5.95;1.48;;;;;;;;;;5023324;28;20419;-72
2022/10/02 12:43:44;;;;;;;10.30;2.10;;;;;;;;;;5024765;28;20225;-71
2022/10/02 12:46:17;;;;;;;5.47;1.60;;;;;;;;;;5028781;28;20232;-72
2022/10/02 12:48:57;;;;;;;4.63;1.30;;;;;;;;;;5031089;28;20186;-72
2022/10/02 12:51:28;;;;;;;3.13;1.00;;;;;;;;;;5028819;28;20178;-71
2022/10/02 12:54:12;;;;;;;6.47;1.50;;;;;;;;;;5016473;28;20200;-73
2022/10/02 12:56:40;;;;;;;5.40;1.48;;;;;;;;;;5030761;28;20186;-70
2022/10/02 12:59:18;;;;;;;13.30;2.25;;;;;;;;;;5029805;28;20229;-72
2022/10/02 13:01:49;;;;;;;7.03;1.60;;;;;;;;;;5031863;28;20527;-72
2022/10/02 13:04:23;;;;;;;5.63;1.90;;;;;;;;;;5032024;28;20674;-72
2022/10/02 13:06:56;;;;;;;6.18;2.35;;;;;;;;;;5012666;28;20180;-72
2022/10/02 13:09:33;;;;;;;5.50;1.40;;;;;;;;;;5022768;28;20186;-72
2022/10/02 13:11:58;;;;;;;9.48;2.20;;;;;;;;;;5012283;28;20652;-72
2022/10/02 13:14:34;;;;;;;6.47;1.50;;;;;;;;;;5022781;28;20186;-72
2022/10/02 13:17:04;;;;;;;5.95;2.05;;;;;;;;;;5024464;28;20197;-69
2022/10/02 13:19:29;;;;;;;6.55;1.88;;;;;;;;;;5030934;28;20174;-70
2022/10/02 13:22:08;;;;;;;6.77;1.17;;;;;;;;;;5022402;28;20169;-70
2022/10/02 13:24:52;;;;;;;6.63;1.83;;;;;;;;;;5004313;28;20975;-70
2022/10/02 13:27:36;;;;;;;5.05;1.27;;;;;;;;;;5026605;28;20779;-70
2022/10/02 13:30:15;;;;;;;4.30;1.00;;;;;;;;;;5021958;28;20230;-69
2022/10/02 13:32:53;;;;;;;5.18;1.40;;;;;;;;;;5003244;28;20253;-70
2022/10/02 13:35:35;;;;;;;5.43;1.33;;;;;;;;;;5028804;28;20655;-70
2022/10/02 13:38:08;;;;;;;4.68;1.52;;;;;;;;;;5024770;28;20202;-71
2022/10/02 13:40:49;;;;;;;6.75;1.83;;;;;;;;;;5031013;28;20257;-72
2022/10/02 13:43:33;;;;;;;5.60;1.23;;;;;;;;;;5022209;28;20201;-68
2022/10/02 13:46:16;;;;;;;10.10;1.55;;;;;;;;;;5022307;28;20216;-68
2022/10/02 13:48:53;;;;;;;5.18;1.40;;;;;;;;;;5016721;28;20235;-69
2022/10/02 13:51:25;;;;;;;4.68;1.15;;;;;;;;;;5022018;28;20177;-68
2022/10/02 13:54:06;;;;;;;7.45;1.40;;;;;;;;;;5028303;28;20218;-72
2022/10/02 13:56:42;;;;;;;6.10;1.27;;;;;;;;;;5026474;28;20182;-69
2022/10/02 13:59:28;;;;;;;9.20;2.22;;;;;;;;;;5008047;28;20181;-72
2022/10/02 14:02:13;;;;;;;9.65;1.40;;;;;;;;;;5022666;28;20676;-70
2022/10/02 14:04:57;;;;;;;5.78;1.25;;;;;;;;;;5020519;28;20205;-71
2022/10/02 14:07:28;;;;;;;4.80;1.42;;;;;;;;;;5026126;28;20181;-72
2022/10/02 14:10:13;;;;;;;5.15;1.50;;;;;;;;;;5006942;28;20179;-68
2022/10/02 14:12:58;;;;;;;5.10;2.25;;;;;;;;;;5007087;28;20202;-68
2022/10/02 14:15:38;;;;;;;7.53;2.33;;;;;;;;;;5022234;28;20179;-69
2022/10/02 14:18:22;;;;;;;8.40;1.50;;;;;;;;;;5029191;28;20209;-71
2022/10/02 14:21:06;;;;;;;9.98;2.00;;;;;;;;;;5019091;28;20765;-71
2022/10/02 14:23:31;;;;;;;8.60;2.00;;;;;;;;;;5017358;28;20256;-71
2022/10/02 14:26:08;;;;;;;5.53;2.10;;;;;;;;;;5028369;28;20167;-72
2022/10/02 14:28:46;;;;;;;8.38;1.98;;;;;;;;;;5022300;28;20438;-71
2022/10/02 14:31:15;;;;;;;4.20;1.10;;;;;;;;;;5026689;28;20221;-72
2022/10/02 14:33:58;;;;;;;6.25;1.70;;;;;;;;;;5022881;28;20194;-71
2022/10/02 14:36:30;;;;;;;4.40;1.30;;;;;;;;;;5026149;28;20178;-71
2022/10/02 14:39:04;;;;;;;5.57;1.55;;;;;;;;;;5016785;28;20198;-71
2022/10/02 14:41:49;;;;;;;7.32;1.58;;;;;;;;;;4999225;28;20195;-71
2022/10/02 14:44:17;;;;;;;5.03;1.40;;;;;;;;;;5026294;28;20526;-70
2022/10/02 14:46:48;;;;;;;11.95;2.22;;;;;;;;;;5020077;28;20221;-71
2022/10/02 14:49:32;;;;;;;8.20;1.60;;;;;;;;;;5025877;28;20240;-72
2022/10/02 14:52:09;;;;;;;8.65;2.58;;;;;;;;;;5022691;28;20167;-71
2022/10/02 14:54:34;;;;;;;6.45;1.30;;;;;;;;;;5009615;28;20714;-71
2022/10/02 14:57:11;;;;;;;4.30;1.33;;;;;;;;;;5018560;28;20215;-71
2022/10/02 15:00:00;;;;;;;5.18;1.48;;;;;;;;;;5028252;28;20454;-71
2022/10/02 15:02:26;;;;;;;7.47;2.20;;;;;;;;;;5010669;28;20207;-70
2022/10/02 15:05:09;;;;;;;8.82;1.75;;;;;;;;;;5021006;28;20526;-71
2022/10/02 15:07:37;;;;;;;6.45;1.48;;;;;;;;;;5027114;28;20244;-71
2022/10/02 15:10:02;;;;;;;7.30;1.75;;;;;;;;;;5023012;28;20214;-70
2022/10/02 15:12:45;;;;;;;9.47;2.93;;;;;;;;;;5028766;28;20664;-71
2022/10/02 15:15:20;;;;;;;8.57;1.35;;;;;;;;;;5021888;28;20414;-70
2022/10/02 15:17:59;;;;;;;8.15;1.85;;;;;;;;;;5024619;28;20671;-71
2022/10/02 15:20:24;;;;;;;6.18;1.75;;;;;;;;;;5024090;28;20185;-70
2022/10/02 15:23:16;;;;;;;8.00;1.40;;;;;;;;;;5020690;28;20194;-70
2022/10/02 15:25:42;;;;;;;10.57;1.60;;;;;;;;;;5017168;28;20194;-70
2022/10/02 15:28:10;;;;;;;4.97;1.35;;;;;;;;;;5028382;28;20179;-70